createdAt,value
2023-05-08T00:03:36.923Z,98455.00
2023-05-08T00:08:39.552Z,98444.13
2023-05-08T00:13:41.620Z,98459.22
2023-05-08T00:18:43.664Z,98439.50
2023-05-08T00:23:45.548Z,98436.91
2023-05-08T00:28:47.794Z,98442.47
2023-05-08T00:33:49.939Z,98439.06
2023-05-08T00:38:51.827Z,98446.56
2023-05-08T00:43:53.698Z,98433.88
2023-05-08T00:48:55.694Z,98446.97
2023-05-08T00:54:00.028Z,98440.09
2023-05-08T00:59:03.177Z,98444.28
2023-05-08T01:04:05.698Z,98442.09
2023-05-08T01:09:07.980Z,98445.19
2023-05-08T01:14:34.000Z,98436.22
2023-05-08T01:19:43.033Z,98436.38
2023-05-08T01:25:16.868Z,98433.22
2023-05-08T01:30:24.852Z,98435.53
2023-05-08T01:35:34.547Z,98422.47
2023-05-08T01:40:53.745Z,98426.09
2023-05-08T01:45:58.171Z,98435.06
2023-05-08T01:51:12.093Z,98437.06
2023-05-08T01:56:22.284Z,98435.16
2023-05-08T02:01:25.812Z,98440.38
2023-05-08T02:06:32.466Z,98443.72
2023-05-08T02:11:36.971Z,98444.03
2023-05-08T02:16:41.194Z,98448.56
2023-05-08T02:21:45.899Z,98446.28
2023-05-08T02:26:50.003Z,98439.41
2023-05-08T02:31:54.318Z,98447.00
2023-05-08T02:36:59.787Z,98441.59
2023-05-08T02:42:02.460Z,98446.84
2023-05-08T02:47:22.270Z,98449.16
2023-05-08T02:52:35.480Z,98447.81
2023-05-08T02:57:40.512Z,98445.53
2023-05-08T03:02:53.115Z,98446.97
2023-05-08T03:07:59.955Z,98455.16
2023-05-08T03:13:07.591Z,98462.94
2023-05-08T03:18:14.460Z,98452.03
2023-05-08T03:23:20.265Z,98458.53
2023-05-08T03:28:24.032Z,98454.19
2023-05-08T03:33:29.709Z,98448.16
2023-05-08T03:38:35.117Z,98450.16
2023-05-08T03:43:38.093Z,98448.88
2023-05-08T03:48:41.375Z,98459.69
2023-05-08T03:53:43.489Z,98458.72
2023-05-08T03:59:13.143Z,98458.91
2023-05-08T04:04:20.526Z,98463.25
2023-05-08T04:09:45.671Z,98467.91
2023-05-08T04:14:56.869Z,98473.00
2023-05-08T04:20:04.624Z,98481.84
2023-05-08T04:25:09.195Z,98483.03
2023-05-08T04:30:12.248Z,98487.34
2023-05-08T04:35:14.647Z,98495.03
2023-05-08T04:40:17.266Z,98490.94
2023-05-08T04:45:20.723Z,98502.78
2023-05-08T04:50:22.798Z,98501.34
2023-05-08T04:55:24.748Z,98503.88
2023-05-08T05:00:27.452Z,98511.63
2023-05-08T05:05:29.500Z,98510.16
2023-05-08T05:10:31.603Z,98509.06
2023-05-08T05:15:34.447Z,98514.50
2023-05-08T05:20:37.407Z,98512.31
2023-05-08T05:25:39.862Z,98514.75
2023-05-08T05:30:41.796Z,98518.69
2023-05-08T05:35:44.382Z,98520.13
2023-05-08T05:40:46.500Z,98519.91
2023-05-08T05:45:48.563Z,98527.34
2023-05-08T05:50:50.480Z,98533.69
2023-05-08T05:55:53.095Z,98537.81
2023-05-08T06:00:55.849Z,98535.56
2023-05-08T06:05:58.172Z,98542.91
2023-05-08T06:11:02.421Z,98544.34
2023-05-08T06:16:04.675Z,98547.44
2023-05-08T06:21:06.728Z,98549.16
2023-05-08T06:26:08.866Z,98547.84
2023-05-08T06:31:10.729Z,98546.56
2023-05-08T06:36:13.000Z,98541.13
2023-05-08T06:41:15.467Z,98545.75
2023-05-08T06:46:17.485Z,98548.25
2023-05-08T06:51:23.193Z,98549.13
2023-05-08T06:56:25.083Z,98556.06
2023-05-08T07:01:27.110Z,98557.75
2023-05-08T07:06:31.005Z,98563.66
2023-05-08T07:11:33.058Z,98557.25
2023-05-08T07:16:35.099Z,98559.28
2023-05-08T07:21:37.199Z,98562.47
2023-05-08T07:26:39.026Z,98568.22
2023-05-08T07:31:41.807Z,98568.50
2023-05-08T07:36:43.684Z,98568.34
2023-05-08T07:41:47.203Z,98565.63
2023-05-08T07:46:51.178Z,98565.63
2023-05-08T07:51:53.444Z,98568.53
2023-05-08T07:56:55.418Z,98567.91
2023-05-08T08:01:57.392Z,98570.31
2023-05-08T08:06:59.503Z,98570.59
2023-05-08T08:12:01.444Z,98564.94
2023-05-08T08:17:03.408Z,98571.38
2023-05-08T08:22:06.134Z,98568.69
2023-05-08T08:27:08.507Z,98559.44
2023-05-08T08:32:10.356Z,98566.16
2023-05-08T08:37:14.824Z,98560.28
2023-05-08T08:42:16.869Z,98565.66
2023-05-08T08:47:22.583Z,98561.94
2023-05-08T08:52:37.748Z,98562.03
2023-05-08T08:57:52.788Z,98563.34
2023-05-08T09:02:54.939Z,98554.09
2023-05-08T09:07:58.320Z,98552.91
2023-05-08T09:13:00.234Z,98555.97
2023-05-08T09:18:06.667Z,98551.06
2023-05-08T09:23:08.953Z,98546.31
2023-05-08T09:28:21.229Z,98550.88
2023-05-08T09:33:28.281Z,98548.59
2023-05-08T09:38:42.025Z,98550.78
2023-05-08T09:43:44.960Z,98539.22
2023-05-08T09:48:46.900Z,98538.50
2023-05-08T09:53:56.118Z,98541.50
2023-05-08T09:58:58.179Z,98550.25
2023-05-08T10:04:00.769Z,98545.94
2023-05-08T10:09:13.330Z,98541.88
2023-05-08T10:14:15.201Z,98542.38
2023-05-08T10:19:18.843Z,98538.53
2023-05-08T10:24:26.572Z,98540.25
2023-05-08T10:29:34.108Z,98542.75
2023-05-08T10:34:41.724Z,98537.13
2023-05-08T10:39:44.987Z,98547.97
2023-05-08T10:44:47.224Z,98544.50
2023-05-08T10:50:06.253Z,98541.50
2023-05-08T10:55:28.376Z,98536.03
2023-05-08T11:00:52.073Z,98530.19
2023-05-08T11:05:56.992Z,98525.56
2023-05-08T11:10:59.108Z,98517.28
2023-05-08T11:16:01.110Z,98520.31
2023-05-08T11:21:06.234Z,98518.53
2023-05-08T11:26:11.462Z,98511.25
2023-05-08T11:31:13.413Z,98537.28
2023-05-08T11:36:20.733Z,98513.31
2023-05-08T11:41:24.557Z,98517.16
2023-05-08T11:46:38.247Z,98512.84
2023-05-08T11:51:44.955Z,98512.75
2023-05-08T11:56:48.202Z,98510.97
2023-05-08T12:02:07.052Z,98521.69
2023-05-08T12:07:10.071Z,98511.75
2023-05-08T12:12:12.232Z,98517.03
2023-05-08T12:17:18.040Z,98511.03
2023-05-08T12:22:19.923Z,98512.63
2023-05-08T12:27:21.833Z,98515.25
2023-05-08T12:32:24.039Z,98507.00
2023-05-08T12:37:29.317Z,98521.28
2023-05-08T12:42:49.640Z,98509.09
2023-05-08T12:47:53.205Z,98512.81
2023-05-08T12:52:55.128Z,98513.09
2023-05-08T12:58:15.196Z,98514.78
2023-05-08T13:03:27.040Z,98509.00
2023-05-08T13:08:37.408Z,98494.06
2023-05-08T13:13:39.320Z,98494.41
2023-05-08T13:18:41.180Z,98498.31
2023-05-08T13:23:43.518Z,98481.03
2023-05-08T13:28:45.440Z,98465.44
2023-05-08T13:33:47.348Z,98471.91
2023-05-08T13:38:49.505Z,98472.75
2023-05-08T13:43:51.875Z,98474.91
2023-05-08T13:48:53.723Z,98466.09
2023-05-08T13:53:55.584Z,98473.91
2023-05-08T13:58:57.384Z,98470.56
2023-05-08T14:03:59.422Z,98461.28
2023-05-08T14:09:01.483Z,98468.00
2023-05-08T14:14:03.719Z,98466.84
2023-05-08T14:19:05.590Z,98463.59
2023-05-08T14:24:09.007Z,98458.63
2023-05-08T14:29:10.884Z,98446.38
2023-05-08T14:34:12.841Z,98452.31
2023-05-08T14:39:14.779Z,98441.53
2023-05-08T14:44:16.768Z,98443.50
2023-05-08T14:49:25.383Z,98446.91
2023-05-08T14:54:35.438Z,98452.91
2023-05-08T14:59:38.651Z,98453.78
2023-05-08T15:04:46.173Z,98451.28
2023-05-08T15:09:48.029Z,98435.31
2023-05-08T15:14:49.988Z,98437.88
2023-05-08T15:19:51.820Z,98440.78
2023-05-08T15:24:54.106Z,98433.47
2023-05-08T15:29:56.150Z,98429.16
2023-05-08T15:34:57.949Z,98436.66
2023-05-08T15:40:01.009Z,98427.78
2023-05-08T15:45:02.887Z,98428.31
2023-05-08T15:50:05.059Z,98436.44
2023-05-08T15:55:07.116Z,98439.16
2023-05-08T16:00:09.631Z,98433.53
2023-05-08T16:05:11.936Z,98427.66
2023-05-08T16:10:13.931Z,98420.75
2023-05-08T16:15:16.101Z,98425.59
2023-05-08T16:20:17.940Z,98416.28
2023-05-08T16:25:19.860Z,98414.97
2023-05-08T16:30:21.695Z,98411.34
2023-05-08T16:35:23.586Z,98413.75
2023-05-08T16:40:25.648Z,98414.97
2023-05-08T16:45:27.919Z,98417.97
2023-05-08T16:50:29.824Z,98416.50
2023-05-08T16:55:31.639Z,98415.03
2023-05-08T17:00:33.978Z,98418.38
2023-05-08T17:05:35.798Z,98427.59
2023-05-08T17:10:39.404Z,98433.19
2023-05-08T17:15:41.217Z,98441.81
2023-05-08T17:20:43.098Z,98443.22
2023-05-08T17:25:45.044Z,98444.03
2023-05-08T17:30:48.159Z,98440.59
2023-05-08T17:35:50.182Z,98443.03
2023-05-08T17:40:52.012Z,98447.13
2023-05-08T17:45:53.892Z,98442.88
2023-05-08T17:50:55.708Z,98447.81
2023-05-08T17:55:58.367Z,98451.34
2023-05-08T18:01:00.348Z,98447.41
2023-05-08T18:06:02.368Z,98445.78
2023-05-08T18:11:04.209Z,98444.22
2023-05-08T18:16:06.063Z,98453.28
2023-05-08T18:21:08.347Z,98453.97
2023-05-08T18:26:14.549Z,98461.88
2023-05-08T18:31:16.874Z,98464.69
2023-05-08T18:36:18.916Z,98457.19
2023-05-08T18:41:21.413Z,98457.09
2023-05-08T18:46:23.374Z,98458.88
2023-05-08T18:51:25.255Z,98458.41
2023-05-08T18:56:27.218Z,98464.22
2023-05-08T19:01:29.068Z,98462.75
2023-05-08T19:06:31.534Z,98464.81
2023-05-08T19:11:33.393Z,98464.78
2023-05-08T19:16:35.247Z,98470.03
2023-05-08T19:21:37.135Z,98469.88
2023-05-08T19:26:39.112Z,98468.06
2023-05-08T19:31:41.471Z,98475.66
2023-05-08T19:36:43.423Z,98484.84
2023-05-08T19:41:45.294Z,98473.38
2023-05-08T19:46:47.153Z,98473.88
2023-05-08T19:51:49.531Z,98471.41
2023-05-08T19:56:51.337Z,98464.38
2023-05-08T20:01:53.987Z,98460.16
2023-05-08T20:06:56.135Z,98460.56
2023-05-08T20:11:58.043Z,98461.69
2023-05-08T20:16:59.974Z,98457.19
2023-05-08T20:22:01.811Z,98467.22
2023-05-08T20:27:03.701Z,98476.31
2023-05-08T20:32:07.351Z,98470.78
2023-05-08T20:37:09.344Z,98471.28
2023-05-08T20:42:11.210Z,98472.69
2023-05-08T20:47:13.088Z,98471.13
2023-05-08T20:52:14.950Z,98474.25
2023-05-08T20:57:18.377Z,98466.97
2023-05-08T21:02:20.225Z,98465.81
2023-05-08T21:07:22.048Z,98463.94
2023-05-08T21:12:23.847Z,98468.06
2023-05-08T21:17:25.765Z,98463.06
2023-05-08T21:22:27.634Z,98464.00
2023-05-08T21:27:29.735Z,98460.47
2023-05-08T21:32:31.576Z,98456.13
2023-05-08T21:37:33.499Z,98454.59
2023-05-08T21:42:35.392Z,98449.97
2023-05-08T21:47:37.340Z,98448.06
2023-05-08T21:52:39.198Z,98451.19
2023-05-08T21:57:41.133Z,98462.75
2023-05-08T22:02:43.192Z,98460.44
2023-05-08T22:07:45.171Z,98455.28
2023-05-08T22:12:48.135Z,98455.56
2023-05-08T22:17:50.815Z,98450.50
2023-05-08T22:22:52.696Z,98448.66
2023-05-08T22:27:54.535Z,98448.06
2023-05-08T22:32:58.099Z,98452.13
2023-05-08T22:38:00.258Z,98435.75
2023-05-08T22:43:02.553Z,98433.19
2023-05-08T22:48:04.708Z,98424.81
2023-05-08T22:53:08.227Z,98422.28
2023-05-08T22:58:10.095Z,98430.34
2023-05-08T23:03:13.090Z,98422.75
2023-05-08T23:08:15.027Z,98417.72
2023-05-08T23:13:16.900Z,98417.84
2023-05-08T23:18:18.790Z,98420.44
2023-05-08T23:23:20.640Z,98398.50
2023-05-08T23:28:22.472Z,98398.88
2023-05-08T23:33:24.383Z,98395.81
2023-05-08T23:38:26.827Z,98392.53
2023-05-08T23:43:28.657Z,98392.00
2023-05-08T23:48:30.729Z,98386.81
2023-05-08T23:53:32.547Z,98382.63
2023-05-08T23:58:34.477Z,98376.22
